Time,TemperatureF,DewpointF,PressureIn,WindDirection,WindDirectionDegrees,WindSpeedMPH,WindSpeedGustMPH,Humidity,HourlyPrecipIn,Conditions,Clouds,dailyrainin,SolarRadiationWatts/m^2,SoftwareType,DateUTC
2013-03-17 00:13:00,29.1,19.0,29.58,WSW,257,1.0,6.0,67,0.00,,,0.00,0,weatherlink.com 1.10,2013-03-17 06:13:00,
2013-03-17 00:28:00,28.4,19.0,29.59,NW,307,1.0,2.0,68,0.00,,,0.00,0,weatherlink.com 1.10,2013-03-17 06:28:00,
2013-03-17 00:43:00,27.6,19.0,29.58,WSW,255,0.0,6.0,70,0.00,,,0.00,0,weatherlink.com 1.10,2013-03-17 06:43:00,
2013-03-17 00:58:00,27.8,19.0,29.58,West,263,2.0,3.0,70,0.00,,,0.00,0,weatherlink.com 1.10,2013-03-17 06:58:00,
2013-03-17 01:13:00,27.5,19.0,29.58,WSW,256,0.0,3.0,70,0.00,,,0.00,0,weatherlink.com 1.10,2013-03-17 07:13:00,
2013-03-17 01:28:00,27.0,19.0,29.58,WSW,256,0.0,2.0,71,0.00,,,0.00,0,weatherlink.com 1.10,2013-03-17 07:28:00,
2013-03-17 01:43:00,26.6,19.0,29.57,WSW,256,0.0,2.0,73,0.00,,,0.00,0,weatherlink.com 1.10,2013-03-17 07:43:00,
2013-03-17 01:58:00,26.5,19.0,29.57,West,267,0.0,5.0,72,0.00,,,0.00,0,weatherlink.com 1.10,2013-03-17 07:58:00,
2013-03-17 02:13:00,26.0,18.0,29.56,SSW,212,0.0,2.0,73,0.00,,,0.00,0,weatherlink.com 1.10,2013-03-17 08:13:00,
2013-03-17 02:28:00,26.2,19.0,29.56,SSW,207,0.0,3.0,73,0.00,,,0.00,0,weatherlink.com 1.10,2013-03-17 08:28:00,
2013-03-17 02:43:00,26.0,19.0,29.57,SSW,197,0.0,3.0,74,0.00,,,0.00,0,weatherlink.com 1.10,2013-03-17 08:43:00,
2013-03-17 02:58:00,25.3,18.0,29.56,SSW,209,0.0,3.0,75,0.00,,,0.00,0,weatherlink.com 1.10,2013-03-17 08:58:00,
2013-03-17 03:13:00,24.9,18.0,29.56,SSW,198,0.0,2.0,74,0.00,,,0.00,0,weatherlink.com 1.10,2013-03-17 09:13:00,
2013-03-17 03:28:00,24.9,17.0,29.55,South,173,1.0,4.0,72,0.00,,,0.00,0,weatherlink.com 1.10,2013-03-17 09:28:00,
2013-03-17 03:43:00,25.1,17.0,29.55,South,170,3.0,3.0,70,0.00,,,0.00,0,weatherlink.com 1.10,2013-03-17 09:43:00,
2013-03-17 03:58:00,25.2,17.0,29.54,SW,219,2.0,3.0,70,0.00,,,0.00,0,weatherlink.com 1.10,2013-03-17 09:58:00,
2013-03-17 04:13:00,25.2,17.0,29.54,WSW,250,1.0,4.0,71,0.00,,,0.00,0,weatherlink.com 1.10,2013-03-17 10:13:00,
2013-03-17 04:28:00,25.1,17.0,29.54,SSW,198,0.0,4.0,72,0.00,,,0.00,0,weatherlink.com 1.10,2013-03-17 10:28:00,
2013-03-17 04:43:00,25.2,18.0,29.54,South,184,0.0,2.0,73,0.00,,,0.00,0,weatherlink.com 1.10,2013-03-17 10:43:00,
2013-03-17 04:58:00,25.3,17.0,29.53,South,189,0.0,3.0,72,0.00,,,0.00,0,weatherlink.com 1.10,2013-03-17 10:58:00,
2013-03-17 05:13:00,25.3,17.0,29.52,South,180,0.0,4.0,71,0.00,,,0.00,0,weatherlink.com 1.10,2013-03-17 11:13:00,
2013-03-17 05:28:00,25.2,17.0,29.52,SSE,165,3.0,7.0,72,0.00,,,0.00,0,weatherlink.com 1.10,2013-03-17 11:28:00,
2013-03-17 05:43:00,25.1,17.0,29.52,WSW,248,1.0,6.0,72,0.00,,,0.00,0,weatherlink.com 1.10,2013-03-17 11:43:00,
2013-03-17 05:58:00,25.6,18.0,29.52,SW,229,2.0,11.0,72,0.00,,,0.00,0,weatherlink.com 1.10,2013-03-17 11:58:00,
2013-03-17 06:13:00,25.7,17.0,29.51,South,171,0.0,5.0,70,0.00,,,0.00,0,weatherlink.com 1.10,2013-03-17 12:13:00,
2013-03-17 06:28:00,25.4,17.0,29.50,NW,323,1.0,4.0,70,0.00,,,0.00,0,weatherlink.com 1.10,2013-03-17 12:28:00,
2013-03-17 06:43:00,25.6,16.0,29.49,NW,306,2.0,8.0,68,0.00,,,0.00,0,weatherlink.com 1.10,2013-03-17 12:43:00,
2013-03-17 06:59:00,25.7,16.0,29.49,SW,215,2.0,7.0,68,0.00,,,0.00,0,weatherlink.com 1.10,2013-03-17 12:59:00,
2013-03-17 07:14:00,25.6,16.0,29.50,West,272,1.0,7.0,68,0.00,,,0.00,0,weatherlink.com 1.10,2013-03-17 13:14:00,
2013-03-17 07:29:00,25.6,16.0,29.50,WSW,255,1.0,7.0,67,0.00,,,0.00,11,weatherlink.com 1.10,2013-03-17 13:29:00,
2013-03-17 07:44:00,26.6,17.0,29.50,South,185,1.0,8.0,67,0.00,,,0.00,97,weatherlink.com 1.10,2013-03-17 13:44:00,
2013-03-17 07:59:00,28.3,17.0,29.49,SSW,198,3.0,10.0,64,0.00,,,0.00,153,weatherlink.com 1.10,2013-03-17 13:59:00,
2013-03-17 08:14:00,28.0,18.0,29.49,SW,229,0.0,7.0,65,0.00,,,0.00,105,weatherlink.com 1.10,2013-03-17 14:14:00,
2013-03-17 08:29:00,28.0,18.0,29.48,SW,229,5.0,8.0,66,0.00,,,0.00,44,weatherlink.com 1.10,2013-03-17 14:29:00,
2013-03-17 08:44:00,27.6,19.0,29.48,NW,305,2.0,12.0,69,0.00,,,0.00,272,weatherlink.com 1.10,2013-03-17 14:44:00,
2013-03-17 08:59:00,29.3,20.0,29.48,NW,312,2.0,13.0,69,0.00,,,0.00,248,weatherlink.com 1.10,2013-03-17 14:59:00,
2013-03-17 09:14:00,28.1,20.0,29.49,WSW,257,1.0,9.0,71,0.00,,,0.00,127,weatherlink.com 1.10,2013-03-17 15:14:00,
2013-03-17 09:29:00,27.4,20.0,29.47,South,186,7.0,10.0,74,0.00,,,0.00,128,weatherlink.com 1.10,2013-03-17 15:29:00,
2013-03-17 09:44:00,27.8,22.0,29.47,WNW,293,2.0,12.0,78,0.00,,,0.00,343,weatherlink.com 1.10,2013-03-17 15:44:00,
2013-03-17 09:59:00,28.1,22.0,29.46,SSE,150,3.0,8.0,77,0.00,,,0.00,165,weatherlink.com 1.10,2013-03-17 15:59:00,
2013-03-17 10:14:00,28.5,22.0,29.47,SW,223,3.0,8.0,78,0.00,,,0.00,265,weatherlink.com 1.10,2013-03-17 16:14:00,
2013-03-17 10:29:00,29.1,23.0,29.45,SSW,204,3.0,10.0,78,0.00,,,0.00,200,weatherlink.com 1.10,2013-03-17 16:29:00,
2013-03-17 10:44:00,31.2,23.0,29.45,West,273,5.0,16.0,73,0.00,,,0.00,534,weatherlink.com 1.10,2013-03-17 16:44:00,
2013-03-17 10:59:00,33.2,24.0,29.45,WNW,282,4.0,13.0,68,0.00,,,0.00,489,weatherlink.com 1.10,2013-03-17 16:59:00,
2013-03-17 11:14:00,34.7,24.0,29.45,West,269,9.0,15.0,65,0.00,,,0.00,935,weatherlink.com 1.10,2013-03-17 17:14:00,
2013-03-17 11:29:00,35.8,24.0,29.44,West,280,8.0,14.0,63,0.00,,,0.00,443,weatherlink.com 1.10,2013-03-17 17:29:00,
2013-03-17 11:44:00,35.2,21.0,29.42,West,271,20.0,20.0,57,0.00,,,0.00,856,weatherlink.com 1.10,2013-03-17 17:44:00,
2013-03-17 11:59:00,35.7,21.0,29.41,NNW,348,2.0,16.0,55,0.00,,,0.00,844,weatherlink.com 1.10,2013-03-17 17:59:00,
2013-03-17 12:14:00,36.6,20.0,29.42,NW,311,3.0,17.0,51,0.00,,,0.00,912,weatherlink.com 1.10,2013-03-17 18:14:00,
2013-03-17 12:29:00,36.2,18.0,29.40,West,259,12.0,21.0,48,0.00,,,0.00,928,weatherlink.com 1.10,2013-03-17 18:29:00,
2013-03-17 12:44:00,36.5,17.0,29.39,WNW,297,17.0,23.0,46,0.00,,,0.00,879,weatherlink.com 1.10,2013-03-17 18:44:00,
2013-03-17 13:00:00,36.6,16.0,29.38,WNW,288,5.0,22.0,44,0.00,,,0.00,886,weatherlink.com 1.10,2013-03-17 19:00:00,
2013-03-17 13:15:00,36.6,15.0,29.38,WNW,288,13.0,26.0,42,0.00,,,0.00,893,weatherlink.com 1.10,2013-03-17 19:15:00,
2013-03-17 13:30:00,37.7,16.0,29.37,NW,319,12.0,18.0,42,0.00,,,0.00,914,weatherlink.com 1.10,2013-03-17 19:30:00,
2013-03-17 13:45:00,37.3,14.0,29.37,WNW,295,7.0,17.0,39,0.00,,,0.00,956,weatherlink.com 1.10,2013-03-17 19:45:00,
2013-03-17 14:00:00,37.8,13.0,29.36,NW,315,13.0,22.0,37,0.00,,,0.00,907,weatherlink.com 1.10,2013-03-17 20:00:00,
2013-03-17 14:15:00,38.4,15.0,29.35,NNW,329,7.0,15.0,38,0.00,,,0.00,997,weatherlink.com 1.10,2013-03-17 20:15:00,
2013-03-17 14:30:00,36.6,15.0,29.35,West,265,11.0,16.0,41,0.00,,,0.00,912,weatherlink.com 1.10,2013-03-17 20:30:00,
2013-03-17 14:45:00,36.6,13.0,29.34,West,280,7.0,21.0,38,0.00,,,0.00,323,weatherlink.com 1.10,2013-03-17 20:45:00,
2013-03-17 15:00:00,34.6,16.0,29.34,NNW,329,5.0,15.0,46,0.00,,,0.00,209,weatherlink.com 1.10,2013-03-17 21:00:00,
2013-03-17 15:15:00,36.1,17.0,29.34,West,279,12.0,24.0,46,0.00,,,0.00,663,weatherlink.com 1.10,2013-03-17 21:15:00,
2013-03-17 15:30:00,31.5,20.0,29.34,West,281,8.0,16.0,63,0.00,,,0.00,221,weatherlink.com 1.10,2013-03-17 21:30:00,
2013-03-17 15:45:00,31.8,21.0,29.34,West,275,3.0,12.0,64,0.00,,,0.00,404,weatherlink.com 1.10,2013-03-17 21:45:00,
2013-03-17 16:00:00,31.9,20.0,29.36,West,270,5.0,14.0,61,0.00,,,0.00,202,weatherlink.com 1.10,2013-03-17 22:00:00,
2013-03-17 16:15:00,32.2,20.0,29.37,WNW,300,9.0,16.0,60,0.00,,,0.00,279,weatherlink.com 1.10,2013-03-17 22:15:00,
2013-03-17 16:30:00,31.2,18.0,29.37,WNW,283,10.0,22.0,59,0.00,,,0.00,162,weatherlink.com 1.10,2013-03-17 22:30:00,
2013-03-17 16:45:00,30.4,19.0,29.39,WNW,298,7.0,19.0,64,0.00,,,0.00,171,weatherlink.com 1.10,2013-03-17 22:45:00,
2013-03-17 17:00:00,31.3,19.0,29.39,NW,310,4.0,10.0,61,0.00,,,0.00,250,weatherlink.com 1.10,2013-03-17 23:00:00,
2013-03-17 17:15:00,32.7,18.0,29.39,West,281,11.0,11.0,56,0.00,,,0.00,315,weatherlink.com 1.10,2013-03-17 23:15:00,
2013-03-17 17:30:00,32.8,18.0,29.39,WSW,258,5.0,13.0,54,0.00,,,0.00,381,weatherlink.com 1.10,2013-03-17 23:30:00,
2013-03-17 17:45:00,32.7,17.0,29.40,NW,308,9.0,17.0,53,0.00,,,0.00,301,weatherlink.com 1.10,2013-03-17 23:45:00,
2013-03-17 18:00:00,29.9,16.0,29.41,WNW,288,5.0,12.0,56,0.00,,,0.00,109,weatherlink.com 1.10,2013-03-18 00:00:00,
2013-03-17 18:15:00,29.2,17.0,29.42,NW,325,7.0,15.0,60,0.00,,,0.00,104,weatherlink.com 1.10,2013-03-18 00:15:00,
2013-03-17 18:30:00,27.1,19.0,29.43,NW,317,3.0,13.0,71,0.00,,,0.00,74,weatherlink.com 1.10,2013-03-18 00:30:00,
2013-03-17 18:45:00,26.1,20.0,29.44,NW,316,3.0,8.0,78,0.00,,,0.00,25,weatherlink.com 1.10,2013-03-18 00:45:00,
2013-03-17 19:00:00,25.4,20.0,29.45,NW,314,2.0,5.0,81,0.00,,,0.00,5,weatherlink.com 1.10,2013-03-18 01:00:00,
2013-03-17 19:15:00,24.9,20.0,29.46,WNW,294,3.0,9.0,82,0.00,,,0.00,0,weatherlink.com 1.10,2013-03-18 01:15:00,
2013-03-17 19:30:00,24.1,20.0,29.47,NW,304,2.0,7.0,85,0.00,,,0.00,0,weatherlink.com 1.10,2013-03-18 01:30:00,
2013-03-17 19:45:00,22.7,19.0,29.48,NW,315,4.0,8.0,87,0.00,,,0.00,0,weatherlink.com 1.10,2013-03-18 01:45:00,
2013-03-17 20:00:00,22.4,19.0,29.49,NNW,335,3.0,7.0,88,0.00,,,0.00,0,weatherlink.com 1.10,2013-03-18 02:00:00,
2013-03-17 20:15:00,22.2,19.0,29.50,NW,304,2.0,4.0,88,0.01,,,0.01,0,weatherlink.com 1.10,2013-03-18 02:15:00,
2013-03-17 20:30:00,22.1,19.0,29.50,NW,306,1.0,3.0,88,0.01,,,0.01,0,weatherlink.com 1.10,2013-03-18 02:30:00,
2013-03-17 20:45:00,21.7,18.0,29.51,WSW,242,0.0,3.0,86,0.01,,,0.01,0,weatherlink.com 1.10,2013-03-18 02:45:00,
2013-03-17 21:00:00,21.3,18.0,29.52,WSW,243,0.0,1.0,85,0.01,,,0.01,0,weatherlink.com 1.10,2013-03-18 03:00:00,
2013-03-17 21:15:00,20.9,17.0,29.52,West,276,0.0,2.0,85,0.00,,,0.01,0,weatherlink.com 1.10,2013-03-18 03:15:00,
2013-03-17 21:30:00,21.4,18.0,29.53,West,265,0.0,3.0,85,0.00,,,0.01,0,weatherlink.com 1.10,2013-03-18 03:30:00,
2013-03-17 21:45:00,21.7,18.0,29.54,West,265,0.0,1.0,86,0.00,,,0.01,0,weatherlink.com 1.10,2013-03-18 03:45:00,
2013-03-17 22:00:00,22.3,19.0,29.55,NNW,328,2.0,2.0,86,0.00,,,0.01,0,weatherlink.com 1.10,2013-03-18 04:00:00,
2013-03-17 22:15:00,22.4,19.0,29.54,West,265,0.0,2.0,85,0.00,,,0.01,0,weatherlink.com 1.10,2013-03-18 04:15:00,
2013-03-17 22:30:00,22.3,18.0,29.55,NW,309,3.0,6.0,82,0.00,,,0.01,0,weatherlink.com 1.10,2013-03-18 04:30:00,
2013-03-17 22:45:00,21.0,16.0,29.55,WSW,242,1.0,6.0,81,0.00,,,0.01,0,weatherlink.com 1.10,2013-03-18 04:45:00,
2013-03-17 23:00:00,20.8,15.0,29.55,West,267,4.0,10.0,77,0.00,,,0.01,0,weatherlink.com 1.10,2013-03-18 05:00:00,
2013-03-17 23:15:00,20.8,14.0,29.55,WNW,284,2.0,12.0,75,0.00,,,0.01,0,weatherlink.com 1.10,2013-03-18 05:15:00,
2013-03-17 23:30:00,20.5,13.0,29.56,WNW,297,2.0,16.0,74,0.00,,,0.01,0,weatherlink.com 1.10,2013-03-18 05:30:00,
2013-03-17 23:45:00,20.8,12.0,29.55,WSW,248,4.0,14.0,70,0.00,,,0.01,0,weatherlink.com 1.10,2013-03-18 05:45:00,